sensor_id;sensor_type;location;lat;lon;timestamp;pressure;altitude;pressure_sealevel;temperature;humidity
18858;BME280;9558;50.178;8.370;2023-12-20T00:02:46;98127.13;;;4.52;100.00
18858;BME280;9558;50.178;8.370;2023-12-20T00:05:33;98119.59;;;4.50;100.00
18858;BME280;9558;50.178;8.370;2023-12-20T00:08:21;98119.88;;;4.47;100.00
18858;BME280;9558;50.178;8.370;2023-12-20T00:11:09;98131.47;;;4.52;100.00
18858;BME280;9558;50.178;8.370;2023-12-20T00:13:56;98122.44;;;4.47;100.00
18858;BME280;9558;50.178;8.370;2023-12-20T00:16:42;98123.09;;;4.49;100.00
18858;BME280;9558;50.178;8.370;2023-12-20T00:19:29;98110.41;;;4.48;100.00
18858;BME280;9558;50.178;8.370;2023-12-20T00:22:16;98107.44;;;4.53;100.00
18858;BME280;9558;50.178;8.370;2023-12-20T00:25:03;98112.56;;;4.53;100.00
18858;BME280;9558;50.178;8.370;2023-12-20T00:27:51;98100.56;;;4.53;100.00
18858;BME280;9558;50.178;8.370;2023-12-20T00:30:38;98108.13;;;4.55;100.00
18858;BME280;9558;50.178;8.370;2023-12-20T00:33:25;98104.22;;;4.50;100.00
18858;BME280;9558;50.178;8.370;2023-12-20T00:36:12;98097.47;;;4.49;100.00
18858;BME280;9558;50.178;8.370;2023-12-20T00:38:58;98109.34;;;4.50;100.00
18858;BME280;9558;50.178;8.370;2023-12-20T00:41:45;98111.91;;;4.50;100.00
18858;BME280;9558;50.178;8.370;2023-12-20T00:44:33;98115.41;;;4.49;100.00
18858;BME280;9558;50.178;8.370;2023-12-20T00:47:20;98104.22;;;4.50;100.00
18858;BME280;9558;50.178;8.370;2023-12-20T00:50:08;98105.69;;;4.53;100.00
18858;BME280;9558;50.178;8.370;2023-12-20T00:52:55;98102.84;;;4.56;100.00
18858;BME280;9558;50.178;8.370;2023-12-20T00:55:29;98095.81;;;4.58;100.00
18858;BME280;9558;50.178;8.370;2023-12-20T00:58:15;98101.78;;;4.59;100.00
18858;BME280;9558;50.178;8.370;2023-12-20T01:01:04;98093.94;;;4.60;100.00
18858;BME280;9558;50.178;8.370;2023-12-20T01:03:51;98088.53;;;4.63;100.00
18858;BME280;9558;50.178;8.370;2023-12-20T01:06:38;98079.22;;;4.62;100.00
18858;BME280;9558;50.178;8.370;2023-12-20T01:09:25;98088.53;;;4.63;100.00
18858;BME280;9558;50.178;8.370;2023-12-20T01:12:12;98082.59;;;4.63;100.00
18858;BME280;9558;50.178;8.370;2023-12-20T01:14:58;98084.34;;;4.62;100.00
18858;BME280;9558;50.178;8.370;2023-12-20T01:17:46;98089.75;;;4.69;100.00
18858;BME280;9558;50.178;8.370;2023-12-20T01:20:34;98079.78;;;4.66;100.00
18858;BME280;9558;50.178;8.370;2023-12-20T01:23:21;98072.09;;;4.66;100.00
18858;BME280;9558;50.178;8.370;2023-12-20T01:26:08;98080.44;;;4.68;100.00
18858;BME280;9558;50.178;8.370;2023-12-20T01:28:55;98083.94;;;4.67;100.00
18858;BME280;9558;50.178;8.370;2023-12-20T01:31:42;98083.00;;;4.68;100.00
18858;BME280;9558;50.178;8.370;2023-12-20T01:34:30;98080.28;;;4.70;100.00
18858;BME280;9558;50.178;8.370;2023-12-20T01:37:17;98079.34;;;4.71;100.00
18858;BME280;9558;50.178;8.370;2023-12-20T01:40:04;98084.75;;;4.67;100.00
18858;BME280;9558;50.178;8.370;2023-12-20T01:42:58;98095.00;;;4.67;100.00
18858;BME280;9558;50.178;8.370;2023-12-20T01:45:46;98100.94;;;4.68;100.00
18858;BME280;9558;50.178;8.370;2023-12-20T01:48:33;98097.44;;;4.69;100.00
18858;BME280;9558;50.178;8.370;2023-12-20T01:51:21;98105.91;;;4.70;100.00
18858;BME280;9558;50.178;8.370;2023-12-20T01:54:09;98107.53;;;4.71;100.00
18858;BME280;9558;50.178;8.370;2023-12-20T01:56:56;98106.31;;;4.75;100.00
18858;BME280;9558;50.178;8.370;2023-12-20T01:59:42;98096.06;;;4.75;100.00
18858;BME280;9558;50.178;8.370;2023-12-20T02:02:30;98101.19;;;4.75;100.00
18858;BME280;9558;50.178;8.370;2023-12-20T02:05:17;98092.53;;;4.76;100.00
18858;BME280;9558;50.178;8.370;2023-12-20T02:08:05;98087.41;;;4.76;100.00
18858;BME280;9558;50.178;8.370;2023-12-20T02:10:52;98082.03;;;4.79;100.00
18858;BME280;9558;50.178;8.370;2023-12-20T02:13:39;98089.03;;;4.77;100.00
18858;BME280;9558;50.178;8.370;2023-12-20T02:16:26;98084.59;;;4.79;100.00
18858;BME280;9558;50.178;8.370;2023-12-20T02:19:13;98071.63;;;4.80;100.00
18858;BME280;9558;50.178;8.370;2023-12-20T02:22:09;98075.28;;;4.78;100.00
18858;BME280;9558;50.178;8.370;2023-12-20T02:24:55;98064.88;;;4.79;100.00
18858;BME280;9558;50.178;8.370;2023-12-20T02:27:42;98073.66;;;4.77;100.00
18858;BME280;9558;50.178;8.370;2023-12-20T02:30:29;98083.91;;;4.77;100.00
18858;BME280;9558;50.178;8.370;2023-12-20T02:33:15;98070.16;;;4.78;100.00
18858;BME280;9558;50.178;8.370;2023-12-20T02:36:03;98068.53;;;4.77;100.00
18858;BME280;9558;50.178;8.370;2023-12-20T02:38:51;98077.84;;;4.78;100.00
18858;BME280;9558;50.178;8.370;2023-12-20T02:41:38;98077.84;;;4.78;100.00
18858;BME280;9558;50.178;8.370;2023-12-20T02:44:25;98083.25;;;4.75;100.00
18858;BME280;9558;50.178;8.370;2023-12-20T02:47:11;98080.81;;;4.73;100.00
18858;BME280;9558;50.178;8.370;2023-12-20T02:49:58;98090.13;;;4.74;100.00
18858;BME280;9558;50.178;8.370;2023-12-20T02:52:45;98087.41;;;4.76;100.00
18858;BME280;9558;50.178;8.370;2023-12-20T02:55:30;98084.19;;;4.74;100.00
18858;BME280;9558;50.178;8.370;2023-12-20T02:58:17;98092.53;;;4.76;100.00
18858;BME280;9558;50.178;8.370;2023-12-20T03:01:03;98091.88;;;4.74;100.00
18858;BME280;9558;50.178;8.370;2023-12-20T03:03:50;98096.88;;;4.75;100.00
18858;BME280;9558;50.178;8.370;2023-12-20T03:06:37;98101.34;;;4.73;100.00
18858;BME280;9558;50.178;8.370;2023-12-20T03:09:24;98099.84;;;4.71;100.00
18858;BME280;9558;50.178;8.370;2023-12-20T03:12:12;98097.00;;;4.74;100.00
18858;BME280;9558;50.178;8.370;2023-12-20T03:14:59;98096.22;;;4.73;100.00
18858;BME280;9558;50.178;8.370;2023-12-20T03:17:45;98103.91;;;4.73;100.00
18858;BME280;9558;50.178;8.370;2023-12-20T03:20:32;98103.06;;;4.73;100.00
18858;BME280;9558;50.178;8.370;2023-12-20T03:23:19;98099.56;;;4.74;100.00
18858;BME280;9558;50.178;8.370;2023-12-20T03:26:07;98106.31;;;4.75;100.00
18858;BME280;9558;50.178;8.370;2023-12-20T03:28:55;98108.75;;;4.76;100.00
18858;BME280;9558;50.178;8.370;2023-12-20T03:31:41;98101.72;;;4.78;100.00
18858;BME280;9558;50.178;8.370;2023-12-20T03:34:28;98117.91;;;4.79;100.00
18858;BME280;9558;50.178;8.370;2023-12-20T03:37:15;98108.31;;;4.81;100.00
18858;BME280;9558;50.178;8.370;2023-12-20T03:40:03;98117.34;;;4.85;100.00
18858;BME280;9558;50.178;8.370;2023-12-20T03:42:49;98127.31;;;4.88;100.00
18858;BME280;9558;50.178;8.370;2023-12-20T03:45:37;98125.44;;;4.90;100.00
18858;BME280;9558;50.178;8.370;2023-12-20T03:48:24;98129.47;;;4.93;100.00
18858;BME280;9558;50.178;8.370;2023-12-20T03:51:11;98123.78;;;4.99;100.00
18858;BME280;9558;50.178;8.370;2023-12-20T03:53:58;98119.19;;;5.02;100.00
18858;BME280;9558;50.178;8.370;2023-12-20T03:56:44;98119.72;;;5.06;100.00
18858;BME280;9558;50.178;8.370;2023-12-20T03:59:35;98122.66;;;5.11;100.00
18858;BME280;9558;50.178;8.370;2023-12-20T04:02:23;98117.13;;;5.16;100.00
18858;BME280;9558;50.178;8.370;2023-12-20T04:05:10;98127.38;;;5.16;100.00
18858;BME280;9558;50.178;8.370;2023-12-20T04:07:59;98129.66;;;5.19;100.00
18858;BME280;9558;50.178;8.370;2023-12-20T04:10:46;98126.13;;;5.20;100.00
18858;BME280;9558;50.178;8.370;2023-12-20T04:13:33;98136.91;;;5.24;100.00
18858;BME280;9558;50.178;8.370;2023-12-20T04:16:20;98139.34;;;5.25;100.00
18858;BME280;9558;50.178;8.370;2023-12-20T04:19:07;98147.84;;;5.26;100.00
18858;BME280;9558;50.178;8.370;2023-12-20T04:21:54;98141.63;;;5.28;100.00
18858;BME280;9558;50.178;8.370;2023-12-20T04:24:41;98153.66;;;5.28;100.00
18858;BME280;9558;50.178;8.370;2023-12-20T04:27:28;98144.19;;;5.28;100.00
18858;BME280;9558;50.178;8.370;2023-12-20T04:30:15;98152.31;;;5.24;100.00
18858;BME280;9558;50.178;8.370;2023-12-20T04:33:02;98141.41;;;5.22;100.00
18858;BME280;9558;50.178;8.370;2023-12-20T04:35:50;98153.69;;;5.18;100.00
18858;BME280;9558;50.178;8.370;2023-12-20T04:38:37;98156.69;;;5.13;100.00
18858;BME280;9558;50.178;8.370;2023-12-20T04:41:24;98160.03;;;5.14;100.00
18858;BME280;9558;50.178;8.370;2023-12-20T04:44:11;98164.81;;;5.09;100.00
18858;BME280;9558;50.178;8.370;2023-12-20T04:46:57;98160.97;;;5.13;100.00
18858;BME280;9558;50.178;8.370;2023-12-20T04:49:44;98184.50;;;5.08;100.00
18858;BME280;9558;50.178;8.370;2023-12-20T04:52:32;98185.56;;;5.06;100.00
18858;BME280;9558;50.178;8.370;2023-12-20T04:55:19;98190.06;;;5.04;100.00
18858;BME280;9558;50.178;8.370;2023-12-20T04:58:06;98182.34;;;5.04;100.00
18858;BME280;9558;50.178;8.370;2023-12-20T05:00:53;98175.88;;;4.99;100.00
18858;BME280;9558;50.178;8.370;2023-12-20T05:03:40;98184.78;;;4.95;100.00
18858;BME280;9558;50.178;8.370;2023-12-20T05:06:26;98178.88;;;4.85;100.00
18858;BME280;9558;50.178;8.370;2023-12-20T05:09:14;98193.88;;;4.80;100.00
18858;BME280;9558;50.178;8.370;2023-12-20T05:12:01;98201.97;;;4.65;100.00
18858;BME280;9558;50.178;8.370;2023-12-20T05:14:48;98207.81;;;4.58;100.00
18858;BME280;9558;50.178;8.370;2023-12-20T05:17:35;98208.59;;;4.48;100.00
18858;BME280;9558;50.178;8.370;2023-12-20T05:20:21;98207.25;;;4.44;100.00
18858;BME280;9558;50.178;8.370;2023-12-20T05:23:08;98204.28;;;4.39;100.00
18858;BME280;9558;50.178;8.370;2023-12-20T05:25:58;98197.81;;;4.35;100.00
18858;BME280;9558;50.178;8.370;2023-12-20T05:28:45;98201.44;;;4.32;100.00
18858;BME280;9558;50.178;8.370;2023-12-20T05:31:32;98188.78;;;4.31;100.00
18858;BME280;9558;50.178;8.370;2023-12-20T05:34:18;98192.41;;;4.28;100.00
18858;BME280;9558;50.178;8.370;2023-12-20T05:37:05;98191.63;;;4.28;100.00
18858;BME280;9558;50.178;8.370;2023-12-20T05:39:52;98204.97;;;4.22;100.00
18858;BME280;9558;50.178;8.370;2023-12-20T05:42:40;98206.97;;;4.18;100.00
18858;BME280;9558;50.178;8.370;2023-12-20T05:45:27;98204.25;;;4.10;100.00
18858;BME280;9558;50.178;8.370;2023-12-20T05:48:14;98198.88;;;4.03;100.00
18858;BME280;9558;50.178;8.370;2023-12-20T05:51:00;98203.72;;;3.96;100.00
18858;BME280;9558;50.178;8.370;2023-12-20T05:53:47;98207.59;;;3.91;100.00
18858;BME280;9558;50.178;8.370;2023-12-20T05:56:35;98204.47;;;3.87;100.00
18858;BME280;9558;50.178;8.370;2023-12-20T05:59:23;98203.16;;;3.83;100.00
18858;BME280;9558;50.178;8.370;2023-12-20T06:02:10;98203.66;;;3.77;100.00
18858;BME280;9558;50.178;8.370;2023-12-20T06:04:56;98201.63;;;3.71;100.00
18858;BME280;9558;50.178;8.370;2023-12-20T06:07:43;98213.88;;;3.67;100.00
18858;BME280;9558;50.178;8.370;2023-12-20T06:10:30;98218.56;;;3.62;100.00
18858;BME280;9558;50.178;8.370;2023-12-20T06:13:17;98231.50;;;3.60;100.00
18858;BME280;9558;50.178;8.370;2023-12-20T06:16:06;98225.03;;;3.56;100.00
18858;BME280;9558;50.178;8.370;2023-12-20T06:18:53;98237.94;;;3.55;100.00
18858;BME280;9558;50.178;8.370;2023-12-20T06:21:39;98239.81;;;3.53;100.00
18858;BME280;9558;50.178;8.370;2023-12-20T06:24:26;98238.56;;;3.47;100.00
18858;BME280;9558;50.178;8.370;2023-12-20T06:27:13;98226.97;;;3.43;100.00
18858;BME280;9558;50.178;8.370;2023-12-20T06:30:00;98215.53;;;3.37;100.00
18858;BME280;9558;50.178;8.370;2023-12-20T06:32:48;98204.06;;;3.32;100.00
18858;BME280;9558;50.178;8.370;2023-12-20T06:35:35;98221.53;;;3.26;100.00
18858;BME280;9558;50.178;8.370;2023-12-20T06:38:21;98225.00;;;3.25;100.00
18858;BME280;9558;50.178;8.370;2023-12-20T06:41:08;98233.66;;;3.24;100.00
18858;BME280;9558;50.178;8.370;2023-12-20T06:43:55;98225.97;;;3.24;100.00
18858;BME280;9558;50.178;8.370;2023-12-20T06:46:43;98227.69;;;3.24;100.00
18858;BME280;9558;50.178;8.370;2023-12-20T06:49:31;98232.81;;;3.24;100.00
18858;BME280;9558;50.178;8.370;2023-12-20T06:52:17;98232.81;;;3.24;100.00
18858;BME280;9558;50.178;8.370;2023-12-20T06:55:05;98245.72;;;3.22;100.00
18858;BME280;9558;50.178;8.370;2023-12-20T06:57:51;98243.88;;;3.24;100.00
18858;BME280;9558;50.178;8.370;2023-12-20T07:00:38;98246.84;;;3.29;100.00
18858;BME280;9558;50.178;8.370;2023-12-20T07:03:25;98248.47;;;3.31;100.00
18858;BME280;9558;50.178;8.370;2023-12-20T07:06:13;98249.84;;;3.35;100.00
18858;BME280;9558;50.178;8.370;2023-12-20T07:09:02;98249.59;;;3.38;100.00
18858;BME280;9558;50.178;8.370;2023-12-20T07:11:48;98266.31;;;3.42;100.00
18858;BME280;9558;50.178;8.370;2023-12-20T07:14:35;98265.25;;;3.44;100.00
18858;BME280;9558;50.178;8.370;2023-12-20T07:17:22;98261.84;;;3.44;100.00
18858;BME280;9558;50.178;8.370;2023-12-20T07:20:09;98266.31;;;3.42;100.00
18858;BME280;9558;50.178;8.370;2023-12-20T07:22:58;98264.81;;;3.39;100.00
18858;BME280;9558;50.178;8.370;2023-12-20T07:25:44;98259.81;;;3.38;100.00
18858;BME280;9558;50.178;8.370;2023-12-20T07:28:31;98258.19;;;3.37;100.00
18858;BME280;9558;50.178;8.370;2023-12-20T07:31:18;98270.19;;;3.36;100.00
18858;BME280;9558;50.178;8.370;2023-12-20T07:34:04;98275.41;;;3.35;100.00
18858;BME280;9558;50.178;8.370;2023-12-20T07:36:52;98270.84;;;3.38;100.00
18858;BME280;9558;50.178;8.370;2023-12-20T07:39:40;98266.25;;;3.32;100.00
18858;BME280;9558;50.178;8.370;2023-12-20T07:42:27;98274.72;;;3.33;100.00
18858;BME280;9558;50.178;8.370;2023-12-20T07:45:14;98280.09;;;3.29;100.00
18858;BME280;9558;50.178;8.370;2023-12-20T07:48:01;98281.34;;;3.35;100.00
18858;BME280;9558;50.178;8.370;2023-12-20T07:50:47;98282.13;;;3.36;100.00
18858;BME280;9558;50.178;8.370;2023-12-20T07:53:34;98286.06;;;3.40;100.00
18858;BME280;9558;50.178;8.370;2023-12-20T07:56:22;98282.31;;;3.44;100.00
18858;BME280;9558;50.178;8.370;2023-12-20T07:59:09;98273.84;;;3.43;100.00
18858;BME280;9558;50.178;8.370;2023-12-20T08:01:55;98288.81;;;3.48;100.00
18858;BME280;9558;50.178;8.370;2023-12-20T08:04:42;98299.75;;;3.50;100.00
18858;BME280;9558;50.178;8.370;2023-12-20T08:07:29;98302.19;;;3.52;100.00
18858;BME280;9558;50.178;8.370;2023-12-20T08:10:16;98296.78;;;3.55;100.00
18858;BME280;9558;50.178;8.370;2023-12-20T08:13:06;98300.84;;;3.57;100.00
18858;BME280;9558;50.178;8.370;2023-12-20T08:15:54;98300.34;;;3.63;100.00
18858;BME280;9558;50.178;8.370;2023-12-20T08:18:41;98298.31;;;3.67;100.00
18858;BME280;9558;50.178;8.370;2023-12-20T08:21:28;98294.56;;;3.71;100.00
18858;BME280;9558;50.178;8.370;2023-12-20T08:24:15;98305.91;;;3.78;100.00
18858;BME280;9558;50.178;8.370;2023-12-20T08:27:02;98308.91;;;3.84;100.00
18858;BME280;9558;50.178;8.370;2023-12-20T08:29:50;98320.38;;;3.89;100.00
18858;BME280;9558;50.178;8.370;2023-12-20T08:32:36;98319.19;;;3.93;100.00
18858;BME280;9558;50.178;8.370;2023-12-20T08:35:23;98315.56;;;3.96;100.00
18858;BME280;9558;50.178;8.370;2023-12-20T08:38:10;98320.97;;;4.03;100.00
18858;BME280;9558;50.178;8.370;2023-12-20T08:40:56;98326.91;;;4.03;100.00
18858;BME280;9558;50.178;8.370;2023-12-20T08:43:43;98327.19;;;4.10;100.00
18858;BME280;9558;50.178;8.370;2023-12-20T08:46:31;98321.84;;;4.13;100.00
18858;BME280;9558;50.178;8.370;2023-12-20T08:49:18;98331.53;;;4.19;100.00
18858;BME280;9558;50.178;8.370;2023-12-20T08:52:05;98330.19;;;4.15;100.00
18858;BME280;9558;50.178;8.370;2023-12-20T08:54:52;98327.50;;;4.17;100.00
18858;BME280;9558;50.178;8.370;2023-12-20T08:57:39;98314.00;;;4.24;100.00
18858;BME280;9558;50.178;8.370;2023-12-20T09:00:26;98322.53;;;4.25;100.00
18858;BME280;9558;50.178;8.370;2023-12-20T09:03:14;98323.63;;;4.32;100.00
18858;BME280;9558;50.178;8.370;2023-12-20T09:06:01;98314.19;;;4.32;100.00
18858;BME280;9558;50.178;8.370;2023-12-20T09:08:47;98326.72;;;4.36;100.00
18858;BME280;9558;50.178;8.370;2023-12-20T09:11:34;98323.22;;;4.37;100.00
18858;BME280;9558;50.178;8.370;2023-12-20T09:14:21;98315.00;;;4.43;100.00
18858;BME280;9558;50.178;8.370;2023-12-20T09:17:08;98313.94;;;4.45;100.00
18858;BME280;9558;50.178;8.370;2023-12-20T09:19:58;98317.72;;;4.51;100.00
18858;BME280;9558;50.178;8.370;2023-12-20T09:22:45;98319.22;;;4.54;100.00
18858;BME280;9558;50.178;8.370;2023-12-20T09:25:32;98326.50;;;4.58;100.00
18858;BME280;9558;50.178;8.370;2023-12-20T09:28:19;98318.16;;;4.56;100.00
18858;BME280;9558;50.178;8.370;2023-12-20T09:31:06;98322.47;;;4.65;100.00
18858;BME280;9558;50.178;8.370;2023-12-20T09:33:53;98332.19;;;4.62;100.00
18858;BME280;9558;50.178;8.370;2023-12-20T09:36:41;98327.59;;;4.65;100.00
18858;BME280;9558;50.178;8.370;2023-12-20T09:39:31;98335.00;;;4.68;100.00
18858;BME280;9558;50.178;8.370;2023-12-20T09:42:23;98342.19;;;4.75;100.00
18858;BME280;9558;50.178;8.370;2023-12-20T09:45:13;98328.16;;;4.79;100.00
18858;BME280;9558;50.178;8.370;2023-12-20T09:48:03;98333.66;;;4.84;100.00
18858;BME280;9558;50.178;8.370;2023-12-20T09:50:51;98335.97;;;4.87;100.00
18858;BME280;9558;50.178;8.370;2023-12-20T09:53:40;98345.00;;;4.91;100.00
18858;BME280;9558;50.178;8.370;2023-12-20T09:56:27;98342.16;;;4.94;100.00
18858;BME280;9558;50.178;8.370;2023-12-20T09:59:14;98343.94;;;5.04;100.00
18858;BME280;9558;50.178;8.370;2023-12-20T10:02:01;98333.00;;;5.11;100.00
18858;BME280;9558;50.178;8.370;2023-12-20T10:04:54;98336.38;;;5.22;100.00
18858;BME280;9558;50.178;8.370;2023-12-20T10:07:41;98331.63;;;5.27;100.00
18858;BME280;9558;50.178;8.370;2023-12-20T10:10:29;98335.41;;;5.32;100.00
18858;BME280;9558;50.178;8.370;2023-12-20T10:13:16;98331.47;;;5.38;100.00
18858;BME280;9558;50.178;8.370;2023-12-20T10:16:03;98324.59;;;5.39;100.00
18858;BME280;9558;50.178;8.370;2023-12-20T10:18:50;98323.75;;;5.48;100.00
18858;BME280;9558;50.178;8.370;2023-12-20T10:21:37;98320.63;;;5.54;100.00
18858;BME280;9558;50.178;8.370;2023-12-20T10:24:24;98314.53;;;5.65;100.00
18858;BME280;9558;50.178;8.370;2023-12-20T10:27:12;98315.34;;;5.65;100.00
18858;BME280;9558;50.178;8.370;2023-12-20T10:29:59;98299.66;;;5.68;100.00
18858;BME280;9558;50.178;8.370;2023-12-20T10:32:45;98299.25;;;5.73;100.00
18858;BME280;9558;50.178;8.370;2023-12-20T10:35:33;98294.34;;;5.80;100.00
18858;BME280;9558;50.178;8.370;2023-12-20T10:38:20;98295.09;;;5.90;100.00
18858;BME280;9558;50.178;8.370;2023-12-20T10:41:08;98282.50;;;5.97;100.00
18858;BME280;9558;50.178;8.370;2023-12-20T10:44:00;98280.06;;;6.05;100.00
18858;BME280;9558;50.178;8.370;2023-12-20T10:46:48;98277.34;;;6.07;100.00
18858;BME280;9558;50.178;8.370;2023-12-20T10:49:37;98271.06;;;6.19;100.00
18858;BME280;9558;50.178;8.370;2023-12-20T10:52:24;98266.97;;;6.26;100.00
18858;BME280;9558;50.178;8.370;2023-12-20T10:55:12;98272.41;;;6.23;100.00
18858;BME280;9558;50.178;8.370;2023-12-20T10:58:01;98271.44;;;6.24;100.00
18858;BME280;9558;50.178;8.370;2023-12-20T11:00:50;98283.34;;;6.25;100.00
18858;BME280;9558;50.178;8.370;2023-12-20T11:03:44;98273.44;;;6.30;100.00
18858;BME280;9558;50.178;8.370;2023-12-20T11:06:36;98266.09;;;6.35;100.00
18858;BME280;9558;50.178;8.370;2023-12-20T11:09:29;98276.81;;;6.31;100.00
18858;BME280;9558;50.178;8.370;2023-12-20T11:12:22;98273.16;;;6.33;100.00
18858;BME280;9558;50.178;8.370;2023-12-20T11:15:12;98260.66;;;6.38;100.00
18858;BME280;9558;50.178;8.370;2023-12-20T11:18:04;98278.50;;;6.40;100.00
18858;BME280;9558;50.178;8.370;2023-12-20T11:20:51;98264.41;;;6.44;100.00
18858;BME280;9558;50.178;8.370;2023-12-20T11:23:38;98254.66;;;6.48;100.00
18858;BME280;9558;50.178;8.370;2023-12-20T11:26:26;98270.06;;;6.48;100.00
18858;BME280;9558;50.178;8.370;2023-12-20T11:29:30;98262.44;;;6.56;100.00
18858;BME280;9558;50.178;8.370;2023-12-20T11:32:29;98263.25;;;6.56;100.00
18858;BME280;9558;50.178;8.370;2023-12-20T11:35:20;98274.03;;;6.60;100.00
18858;BME280;9558;50.178;8.370;2023-12-20T11:38:08;98261.06;;;6.62;100.00
18858;BME280;9558;50.178;8.370;2023-12-20T11:40:55;98258.75;;;6.58;100.00
18858;BME280;9558;50.178;8.370;2023-12-20T11:43:43;98264.41;;;6.62;100.00
18858;BME280;9558;50.178;8.370;2023-12-20T11:46:31;98268.09;;;6.60;100.00
18858;BME280;9558;50.178;8.370;2023-12-20T11:49:23;98250.75;;;6.62;100.00
18858;BME280;9558;50.178;8.370;2023-12-20T11:52:13;98248.03;;;6.63;100.00
18858;BME280;9558;50.178;8.370;2023-12-20T11:54:59;98230.69;;;6.65;100.00
18858;BME280;9558;50.178;8.370;2023-12-20T11:57:46;98240.81;;;6.67;100.00
18858;BME280;9558;50.178;8.370;2023-12-20T12:00:38;98227.88;;;6.77;100.00
18858;BME280;9558;50.178;8.370;2023-12-20T12:03:25;98231.16;;;6.87;100.00
18858;BME280;9558;50.178;8.370;2023-12-20T12:06:12;98221.25;;;6.92;100.00
18858;BME280;9558;50.178;8.370;2023-12-20T12:09:01;98216.69;;;6.86;100.00
18858;BME280;9558;50.178;8.370;2023-12-20T12:11:49;98220.63;;;6.98;100.00
18858;BME280;9558;50.178;8.370;2023-12-20T12:14:36;98210.03;;;7.01;100.00
18858;BME280;9558;50.178;8.370;2023-12-20T12:17:23;98196.88;;;7.04;100.00
18858;BME280;9558;50.178;8.370;2023-12-20T12:20:11;98208.47;;;7.08;100.00
18858;BME280;9558;50.178;8.370;2023-12-20T12:22:58;98208.47;;;7.08;100.00
18858;BME280;9558;50.178;8.370;2023-12-20T12:25:47;98226.00;;;7.05;100.00
18858;BME280;9558;50.178;8.370;2023-12-20T12:28:34;98222.25;;;6.99;100.00
18858;BME280;9558;50.178;8.370;2023-12-20T12:31:21;98224.16;;;6.97;100.00
18858;BME280;9558;50.178;8.370;2023-12-20T12:34:08;98217.72;;;6.93;100.00
18858;BME280;9558;50.178;8.370;2023-12-20T12:36:56;98229.91;;;6.91;100.00
18858;BME280;9558;50.178;8.370;2023-12-20T12:39:43;98233.41;;;6.82;100.00
18858;BME280;9558;50.178;8.370;2023-12-20T12:42:31;98215.19;;;6.75;100.00
18858;BME280;9558;50.178;8.370;2023-12-20T12:45:17;98215.41;;;6.64;100.00
18858;BME280;9558;50.178;8.370;2023-12-20T12:48:06;98195.78;;;6.63;100.00
18858;BME280;9558;50.178;8.370;2023-12-20T12:50:53;98178.09;;;6.60;100.00
18858;BME280;9558;50.178;8.370;2023-12-20T12:53:40;98188.22;;;6.61;100.00
18858;BME280;9558;50.178;8.370;2023-12-20T12:56:26;98179.88;;;6.59;100.00
18858;BME280;9558;50.178;8.370;2023-12-20T12:59:14;98178.53;;;6.55;100.00
18858;BME280;9558;50.178;8.370;2023-12-20T13:02:01;98182.59;;;6.57;100.00
18858;BME280;9558;50.178;8.370;2023-12-20T13:04:48;98168.25;;;6.55;100.00
18858;BME280;9558;50.178;8.370;2023-12-20T13:07:35;98159.28;;;6.59;100.00
18858;BME280;9558;50.178;8.370;2023-12-20T13:10:23;98161.72;;;6.61;100.00
18858;BME280;9558;50.178;8.370;2023-12-20T13:13:09;98145.81;;;6.65;100.00
18858;BME280;9558;50.178;8.370;2023-12-20T13:15:57;98153.53;;;6.65;100.00
18858;BME280;9558;50.178;8.370;2023-12-20T13:18:46;98136.06;;;6.69;100.00
18858;BME280;9558;50.178;8.370;2023-12-20T13:21:33;98133.50;;;6.69;100.00
18858;BME280;9558;50.178;8.370;2023-12-20T13:24:19;98138.13;;;6.65;100.00
18858;BME280;9558;50.178;8.370;2023-12-20T13:27:06;98133.44;;;6.61;100.00
18858;BME280;9558;50.178;8.370;2023-12-20T13:29:53;98125.88;;;6.59;100.00
18858;BME280;9558;50.178;8.370;2023-12-20T13:32:41;98121.97;;;6.55;100.00
18858;BME280;9558;50.178;8.370;2023-12-20T13:35:27;98121.47;;;6.51;100.00
18858;BME280;9558;50.178;8.370;2023-12-20T13:38:14;98122.28;;;6.52;100.00
18858;BME280;9558;50.178;8.370;2023-12-20T13:41:01;98127.72;;;6.49;100.00
18858;BME280;9558;50.178;8.370;2023-12-20T13:43:47;98126.91;;;6.48;100.00
18858;BME280;9558;50.178;8.370;2023-12-20T13:46:35;98114.19;;;6.47;100.00
18858;BME280;9558;50.178;8.370;2023-12-20T13:49:23;98116.72;;;6.38;100.00
18858;BME280;9558;50.178;8.370;2023-12-20T13:52:11;98126.69;;;6.42;100.00
18858;BME280;9558;50.178;8.370;2023-12-20T13:54:57;98119.28;;;6.38;100.00
18858;BME280;9558;50.178;8.370;2023-12-20T13:57:44;98113.78;;;6.33;100.00
18858;BME280;9558;50.178;8.370;2023-12-20T14:00:31;98122.16;;;6.35;100.00
18858;BME280;9558;50.178;8.370;2023-12-20T14:03:18;98123.06;;;6.26;100.00
18858;BME280;9558;50.178;8.370;2023-12-20T14:06:06;98117.63;;;6.29;100.00
18858;BME280;9558;50.178;8.370;2023-12-20T14:08:53;98118.72;;;6.27;100.00
18858;BME280;9558;50.178;8.370;2023-12-20T14:11:40;98121.44;;;6.25;100.00
18858;BME280;9558;50.178;8.370;2023-12-20T14:14:28;98113.88;;;6.23;100.00
18858;BME280;9558;50.178;8.370;2023-12-20T14:17:15;98107.94;;;6.23;100.00
18858;BME280;9558;50.178;8.370;2023-12-20T14:20:02;98101.47;;;6.19;100.00
18858;BME280;9558;50.178;8.370;2023-12-20T14:22:51;98105.00;;;6.18;100.00
18858;BME280;9558;50.178;8.370;2023-12-20T14:25:38;98105.94;;;6.17;100.00
18858;BME280;9558;50.178;8.370;2023-12-20T14:28:25;98094.88;;;6.16;100.00
18858;BME280;9558;50.178;8.370;2023-12-20T14:31:12;98091.22;;;6.19;100.00
18858;BME280;9558;50.178;8.370;2023-12-20T14:33:59;98099.06;;;6.17;100.00
18858;BME280;9558;50.178;8.370;2023-12-20T14:36:49;98117.53;;;6.21;100.00
18858;BME280;9558;50.178;8.370;2023-12-20T14:39:37;98122.84;;;6.19;100.00
18858;BME280;9558;50.178;8.370;2023-12-20T14:42:26;98113.66;;;6.17;100.00
18858;BME280;9558;50.178;8.370;2023-12-20T14:45:13;98102.88;;;6.13;100.00
18858;BME280;9558;50.178;8.370;2023-12-20T14:48:01;98106.56;;;6.11;100.00
18858;BME280;9558;50.178;8.370;2023-12-20T14:50:48;98093.69;;;6.11;100.00
18858;BME280;9558;50.178;8.370;2023-12-20T14:53:36;98093.19;;;6.07;100.00
18858;BME280;9558;50.178;8.370;2023-12-20T14:56:24;98088.34;;;6.04;100.00
18858;BME280;9558;50.178;8.370;2023-12-20T14:59:11;98101.56;;;6.09;100.00